sensor_id;sensor_type;location;lat;lon;timestamp;P1;durP1;ratioP1;P2;durP2;ratioP2
74867;SDS011;63419;42.262;12.210;2023-05-20T00:01:51;7.28;;;2.53;;
74867;SDS011;63419;42.262;12.210;2023-05-20T00:04:18;9.20;;;2.35;;
74867;SDS011;63419;42.262;12.210;2023-05-20T00:06:46;8.23;;;2.13;;
74867;SDS011;63419;42.262;12.210;2023-05-20T00:09:13;6.00;;;1.45;;
74867;SDS011;63419;42.262;12.210;2023-05-20T00:11:41;7.07;;;1.75;;
74867;SDS011;63419;42.262;12.210;2023-05-20T00:14:08;8.63;;;1.88;;
74867;SDS011;63419;42.262;12.210;2023-05-20T00:16:36;8.88;;;1.70;;
74867;SDS011;63419;42.262;12.210;2023-05-20T00:19:03;5.18;;;1.88;;
74867;SDS011;63419;42.262;12.210;2023-05-20T00:21:31;7.47;;;1.55;;
74867;SDS011;63419;42.262;12.210;2023-05-20T00:23:59;7.53;;;2.15;;
74867;SDS011;63419;42.262;12.210;2023-05-20T00:26:27;6.30;;;1.83;;
74867;SDS011;63419;42.262;12.210;2023-05-20T00:28:55;7.15;;;1.85;;
74867;SDS011;63419;42.262;12.210;2023-05-20T00:33:49;6.22;;;1.67;;
74867;SDS011;63419;42.262;12.210;2023-05-20T00:36:17;6.25;;;1.73;;
74867;SDS011;63419;42.262;12.210;2023-05-20T00:38:44;7.18;;;1.73;;
74867;SDS011;63419;42.262;12.210;2023-05-20T00:43:38;5.40;;;1.73;;
74867;SDS011;63419;42.262;12.210;2023-05-20T00:46:06;5.97;;;1.60;;
74867;SDS011;63419;42.262;12.210;2023-05-20T00:48:41;5.07;;;1.33;;
74867;SDS011;63419;42.262;12.210;2023-05-20T00:51:13;7.35;;;1.95;;
74867;SDS011;63419;42.262;12.210;2023-05-20T00:53:40;9.02;;;2.00;;
74867;SDS011;63419;42.262;12.210;2023-05-20T00:56:09;7.30;;;1.80;;
74867;SDS011;63419;42.262;12.210;2023-05-20T00:58:37;9.38;;;1.73;;
74867;SDS011;63419;42.262;12.210;2023-05-20T01:01:06;7.65;;;1.88;;
74867;SDS011;63419;42.262;12.210;2023-05-20T01:06:01;10.95;;;1.77;;
74867;SDS011;63419;42.262;12.210;2023-05-20T01:08:28;9.30;;;1.65;;
74867;SDS011;63419;42.262;12.210;2023-05-20T01:11:05;4.65;;;1.33;;
74867;SDS011;63419;42.262;12.210;2023-05-20T01:13:39;7.65;;;1.45;;
74867;SDS011;63419;42.262;12.210;2023-05-20T01:16:13;7.68;;;1.80;;
74867;SDS011;63419;42.262;12.210;2023-05-20T01:18:45;4.93;;;1.45;;
74867;SDS011;63419;42.262;12.210;2023-05-20T01:21:14;5.75;;;1.52;;
74867;SDS011;63419;42.262;12.210;2023-05-20T01:23:43;8.73;;;1.52;;
74867;SDS011;63419;42.262;12.210;2023-05-20T01:26:12;8.20;;;1.67;;
74867;SDS011;63419;42.262;12.210;2023-05-20T01:28:40;7.25;;;1.38;;
74867;SDS011;63419;42.262;12.210;2023-05-20T01:31:14;6.60;;;1.55;;
74867;SDS011;63419;42.262;12.210;2023-05-20T01:33:54;6.00;;;1.70;;
74867;SDS011;63419;42.262;12.210;2023-05-20T01:36:23;6.70;;;1.65;;
74867;SDS011;63419;42.262;12.210;2023-05-20T01:38:53;8.88;;;2.30;;
74867;SDS011;63419;42.262;12.210;2023-05-20T01:41:23;7.57;;;1.55;;
74867;SDS011;63419;42.262;12.210;2023-05-20T01:43:52;5.47;;;1.75;;
74867;SDS011;63419;42.262;12.210;2023-05-20T01:46:21;7.93;;;1.83;;
74867;SDS011;63419;42.262;12.210;2023-05-20T01:48:50;5.25;;;1.63;;
74867;SDS011;63419;42.262;12.210;2023-05-20T01:51:17;4.82;;;1.35;;
74867;SDS011;63419;42.262;12.210;2023-05-20T01:56:12;5.05;;;1.70;;
74867;SDS011;63419;42.262;12.210;2023-05-20T02:01:06;6.97;;;1.63;;
74867;SDS011;63419;42.262;12.210;2023-05-20T02:03:33;5.43;;;1.65;;
74867;SDS011;63419;42.262;12.210;2023-05-20T02:08:28;7.32;;;1.52;;
74867;SDS011;63419;42.262;12.210;2023-05-20T02:10:55;5.88;;;1.60;;
74867;SDS011;63419;42.262;12.210;2023-05-20T02:15:49;5.63;;;1.73;;
74867;SDS011;63419;42.262;12.210;2023-05-20T02:18:16;6.18;;;1.55;;
74867;SDS011;63419;42.262;12.210;2023-05-20T02:20:44;6.95;;;2.00;;
74867;SDS011;63419;42.262;12.210;2023-05-20T02:23:11;7.10;;;1.77;;
74867;SDS011;63419;42.262;12.210;2023-05-20T02:25:39;11.05;;;1.70;;
74867;SDS011;63419;42.262;12.210;2023-05-20T02:28:06;6.78;;;1.58;;
74867;SDS011;63419;42.262;12.210;2023-05-20T02:30:38;4.97;;;1.98;;
74867;SDS011;63419;42.262;12.210;2023-05-20T02:33:06;9.75;;;1.95;;
74867;SDS011;63419;42.262;12.210;2023-05-20T02:35:35;7.95;;;1.73;;
74867;SDS011;63419;42.262;12.210;2023-05-20T02:38:02;8.68;;;2.50;;
74867;SDS011;63419;42.262;12.210;2023-05-20T02:42:57;5.88;;;1.50;;
74867;SDS011;63419;42.262;12.210;2023-05-20T02:45:26;7.05;;;1.63;;
74867;SDS011;63419;42.262;12.210;2023-05-20T02:47:54;6.40;;;1.90;;
74867;SDS011;63419;42.262;12.210;2023-05-20T02:50:21;12.05;;;1.75;;
74867;SDS011;63419;42.262;12.210;2023-05-20T02:55:15;7.40;;;3.13;;
74867;SDS011;63419;42.262;12.210;2023-05-20T02:57:42;7.97;;;1.50;;
74867;SDS011;63419;42.262;12.210;2023-05-20T03:00:10;6.57;;;1.83;;
74867;SDS011;63419;42.262;12.210;2023-05-20T03:02:41;5.50;;;1.42;;
74867;SDS011;63419;42.262;12.210;2023-05-20T03:07:36;5.88;;;1.55;;
74867;SDS011;63419;42.262;12.210;2023-05-20T03:12:32;7.78;;;1.85;;
74867;SDS011;63419;42.262;12.210;2023-05-20T03:17:26;5.65;;;1.65;;
74867;SDS011;63419;42.262;12.210;2023-05-20T03:19:53;7.15;;;1.80;;
74867;SDS011;63419;42.262;12.210;2023-05-20T03:22:21;6.60;;;2.25;;
74867;SDS011;63419;42.262;12.210;2023-05-20T03:27:15;7.97;;;1.58;;
74867;SDS011;63419;42.262;12.210;2023-05-20T03:32:10;8.57;;;2.10;;
74867;SDS011;63419;42.262;12.210;2023-05-20T03:37:04;9.35;;;2.08;;
74867;SDS011;63419;42.262;12.210;2023-05-20T03:39:32;6.30;;;1.60;;
74867;SDS011;63419;42.262;12.210;2023-05-20T03:44:26;6.88;;;1.77;;
74867;SDS011;63419;42.262;12.210;2023-05-20T03:46:53;11.35;;;1.88;;
74867;SDS011;63419;42.262;12.210;2023-05-20T03:51:48;7.13;;;1.90;;
74867;SDS011;63419;42.262;12.210;2023-05-20T03:56:42;4.28;;;1.48;;
74867;SDS011;63419;42.262;12.210;2023-05-20T03:59:12;6.47;;;1.60;;
74867;SDS011;63419;42.262;12.210;2023-05-20T04:01:39;7.72;;;1.42;;
74867;SDS011;63419;42.262;12.210;2023-05-20T04:04:06;5.35;;;1.42;;
74867;SDS011;63419;42.262;12.210;2023-05-20T04:09:01;5.00;;;1.35;;
74867;SDS011;63419;42.262;12.210;2023-05-20T04:11:29;5.63;;;1.40;;
74867;SDS011;63419;42.262;12.210;2023-05-20T04:13:56;6.35;;;1.55;;
74867;SDS011;63419;42.262;12.210;2023-05-20T04:16:25;6.20;;;1.83;;
74867;SDS011;63419;42.262;12.210;2023-05-20T04:18:55;4.32;;;1.33;;
74867;SDS011;63419;42.262;12.210;2023-05-20T04:21:24;7.43;;;2.33;;
74867;SDS011;63419;42.262;12.210;2023-05-20T04:26:18;7.20;;;1.73;;
74867;SDS011;63419;42.262;12.210;2023-05-20T04:28:46;3.85;;;1.20;;
74867;SDS011;63419;42.262;12.210;2023-05-20T04:31:16;5.53;;;1.75;;
74867;SDS011;63419;42.262;12.210;2023-05-20T04:33:44;6.50;;;1.33;;
74867;SDS011;63419;42.262;12.210;2023-05-20T04:36:12;5.35;;;1.52;;
74867;SDS011;63419;42.262;12.210;2023-05-20T04:38:41;6.35;;;1.23;;
74867;SDS011;63419;42.262;12.210;2023-05-20T04:41:10;6.47;;;1.25;;
74867;SDS011;63419;42.262;12.210;2023-05-20T04:43:37;4.82;;;1.27;;
74867;SDS011;63419;42.262;12.210;2023-05-20T04:46:05;5.32;;;1.55;;
74867;SDS011;63419;42.262;12.210;2023-05-20T04:48:33;4.95;;;1.60;;
74867;SDS011;63419;42.262;12.210;2023-05-20T04:53:27;6.93;;;1.50;;
74867;SDS011;63419;42.262;12.210;2023-05-20T04:55:55;7.03;;;2.95;;
74867;SDS011;63419;42.262;12.210;2023-05-20T05:00:50;10.32;;;1.20;;
74867;SDS011;63419;42.262;12.210;2023-05-20T05:03:18;4.35;;;1.17;;
74867;SDS011;63419;42.262;12.210;2023-05-20T05:05:45;7.22;;;1.38;;
74867;SDS011;63419;42.262;12.210;2023-05-20T05:10:42;4.90;;;1.27;;
74867;SDS011;63419;42.262;12.210;2023-05-20T05:13:11;4.47;;;1.40;;
74867;SDS011;63419;42.262;12.210;2023-05-20T05:18:05;8.00;;;1.48;;
74867;SDS011;63419;42.262;12.210;2023-05-20T05:20:33;5.60;;;0.93;;
74867;SDS011;63419;42.262;12.210;2023-05-20T05:25:27;4.88;;;1.05;;
74867;SDS011;63419;42.262;12.210;2023-05-20T05:30:21;4.10;;;1.25;;
74867;SDS011;63419;42.262;12.210;2023-05-20T05:32:49;3.85;;;1.05;;
74867;SDS011;63419;42.262;12.210;2023-05-20T05:35:16;4.32;;;1.20;;
74867;SDS011;63419;42.262;12.210;2023-05-20T05:37:44;5.22;;;1.50;;
74867;SDS011;63419;42.262;12.210;2023-05-20T05:40:11;6.93;;;1.63;;
74867;SDS011;63419;42.262;12.210;2023-05-20T05:42:40;4.00;;;1.15;;
74867;SDS011;63419;42.262;12.210;2023-05-20T05:47:35;4.28;;;1.10;;
74867;SDS011;63419;42.262;12.210;2023-05-20T05:50:02;9.35;;;1.50;;
74867;SDS011;63419;42.262;12.210;2023-05-20T05:52:30;6.93;;;1.20;;
74867;SDS011;63419;42.262;12.210;2023-05-20T05:57:24;3.88;;;0.90;;
74867;SDS011;63419;42.262;12.210;2023-05-20T05:59:51;3.95;;;1.13;;
74867;SDS011;63419;42.262;12.210;2023-05-20T06:02:19;3.60;;;1.05;;
74867;SDS011;63419;42.262;12.210;2023-05-20T06:04:47;4.53;;;1.13;;
74867;SDS011;63419;42.262;12.210;2023-05-20T06:09:41;5.18;;;1.20;;
74867;SDS011;63419;42.262;12.210;2023-05-20T06:12:09;3.00;;;0.80;;
74867;SDS011;63419;42.262;12.210;2023-05-20T06:14:39;4.93;;;0.90;;
74867;SDS011;63419;42.262;12.210;2023-05-20T06:19:33;4.05;;;1.00;;
74867;SDS011;63419;42.262;12.210;2023-05-20T06:22:00;4.25;;;0.90;;
74867;SDS011;63419;42.262;12.210;2023-05-20T06:24:27;6.00;;;0.95;;
74867;SDS011;63419;42.262;12.210;2023-05-20T06:26:55;4.38;;;0.88;;
74867;SDS011;63419;42.262;12.210;2023-05-20T06:29:22;4.22;;;0.95;;
74867;SDS011;63419;42.262;12.210;2023-05-20T06:31:49;3.42;;;0.80;;
74867;SDS011;63419;42.262;12.210;2023-05-20T06:34:17;4.43;;;1.00;;
74867;SDS011;63419;42.262;12.210;2023-05-20T06:36:44;2.90;;;0.77;;
74867;SDS011;63419;42.262;12.210;2023-05-20T06:39:11;4.30;;;1.10;;
74867;SDS011;63419;42.262;12.210;2023-05-20T06:44:06;3.22;;;0.80;;
74867;SDS011;63419;42.262;12.210;2023-05-20T06:46:33;3.22;;;0.60;;
74867;SDS011;63419;42.262;12.210;2023-05-20T06:49:00;5.28;;;0.90;;
74867;SDS011;63419;42.262;12.210;2023-05-20T06:51:28;4.75;;;0.85;;
74867;SDS011;63419;42.262;12.210;2023-05-20T06:53:56;3.25;;;0.75;;
74867;SDS011;63419;42.262;12.210;2023-05-20T06:56:23;3.55;;;0.80;;
74867;SDS011;63419;42.262;12.210;2023-05-20T06:58:50;3.22;;;0.70;;
74867;SDS011;63419;42.262;12.210;2023-05-20T07:01:17;5.63;;;0.80;;
74867;SDS011;63419;42.262;12.210;2023-05-20T07:03:45;3.00;;;0.73;;
74867;SDS011;63419;42.262;12.210;2023-05-20T07:06:13;3.53;;;0.90;;
74867;SDS011;63419;42.262;12.210;2023-05-20T07:11:08;6.20;;;0.90;;
74867;SDS011;63419;42.262;12.210;2023-05-20T07:13:35;3.25;;;0.73;;
74867;SDS011;63419;42.262;12.210;2023-05-20T07:16:03;4.13;;;0.60;;
74867;SDS011;63419;42.262;12.210;2023-05-20T07:18:31;4.25;;;0.80;;
74867;SDS011;63419;42.262;12.210;2023-05-20T07:20:59;3.00;;;0.82;;
74867;SDS011;63419;42.262;12.210;2023-05-20T07:23:26;2.92;;;0.73;;
74867;SDS011;63419;42.262;12.210;2023-05-20T07:25:53;4.45;;;1.02;;
74867;SDS011;63419;42.262;12.210;2023-05-20T07:28:20;3.15;;;0.68;;
74867;SDS011;63419;42.262;12.210;2023-05-20T07:30:48;5.70;;;0.80;;
74867;SDS011;63419;42.262;12.210;2023-05-20T07:33:16;3.13;;;0.80;;
74867;SDS011;63419;42.262;12.210;2023-05-20T07:35:44;4.03;;;0.70;;
74867;SDS011;63419;42.262;12.210;2023-05-20T07:38:30;3.00;;;0.82;;
74867;SDS011;63419;42.262;12.210;2023-05-20T07:40:58;4.30;;;1.00;;
74867;SDS011;63419;42.262;12.210;2023-05-20T07:43:25;4.10;;;0.70;;
74867;SDS011;63419;42.262;12.210;2023-05-20T07:45:52;5.43;;;1.30;;
74867;SDS011;63419;42.262;12.210;2023-05-20T07:50:46;4.75;;;0.95;;
74867;SDS011;63419;42.262;12.210;2023-05-20T07:53:14;2.65;;;0.77;;
74867;SDS011;63419;42.262;12.210;2023-05-20T07:55:41;3.85;;;0.75;;
74867;SDS011;63419;42.262;12.210;2023-05-20T07:58:08;5.35;;;0.93;;
74867;SDS011;63419;42.262;12.210;2023-05-20T08:00:36;3.63;;;0.90;;
74867;SDS011;63419;42.262;12.210;2023-05-20T08:03:03;5.32;;;0.80;;
74867;SDS011;63419;42.262;12.210;2023-05-20T08:05:35;2.90;;;0.73;;
74867;SDS011;63419;42.262;12.210;2023-05-20T08:08:04;2.92;;;0.70;;
74867;SDS011;63419;42.262;12.210;2023-05-20T08:10:31;4.55;;;0.80;;
74867;SDS011;63419;42.262;12.210;2023-05-20T08:12:58;4.10;;;0.55;;
74867;SDS011;63419;42.262;12.210;2023-05-20T08:15:26;4.47;;;1.02;;
74867;SDS011;63419;42.262;12.210;2023-05-20T08:17:53;3.00;;;0.70;;
74867;SDS011;63419;42.262;12.210;2023-05-20T08:20:21;5.45;;;1.42;;
74867;SDS011;63419;42.262;12.210;2023-05-20T08:22:48;3.78;;;0.68;;
74867;SDS011;63419;42.262;12.210;2023-05-20T08:25:19;9.80;;;1.10;;
74867;SDS011;63419;42.262;12.210;2023-05-20T08:27:46;3.70;;;0.77;;
74867;SDS011;63419;42.262;12.210;2023-05-20T08:30:13;3.55;;;0.65;;
74867;SDS011;63419;42.262;12.210;2023-05-20T08:32:41;3.35;;;0.77;;
74867;SDS011;63419;42.262;12.210;2023-05-20T08:35:08;3.80;;;1.00;;
74867;SDS011;63419;42.262;12.210;2023-05-20T08:37:36;3.72;;;0.73;;
74867;SDS011;63419;42.262;12.210;2023-05-20T08:40:03;3.75;;;0.70;;
74867;SDS011;63419;42.262;12.210;2023-05-20T08:42:32;3.72;;;0.63;;
74867;SDS011;63419;42.262;12.210;2023-05-20T08:44:59;4.05;;;0.90;;
74867;SDS011;63419;42.262;12.210;2023-05-20T08:47:28;4.88;;;0.90;;
74867;SDS011;63419;42.262;12.210;2023-05-20T08:49:55;3.20;;;0.73;;
74867;SDS011;63419;42.262;12.210;2023-05-20T08:52:22;5.22;;;1.00;;
74867;SDS011;63419;42.262;12.210;2023-05-20T08:54:51;5.75;;;0.90;;
74867;SDS011;63419;42.262;12.210;2023-05-20T08:57:19;5.22;;;0.90;;
74867;SDS011;63419;42.262;12.210;2023-05-20T08:59:47;4.47;;;0.80;;
74867;SDS011;63419;42.262;12.210;2023-05-20T09:02:15;3.88;;;0.88;;
74867;SDS011;63419;42.262;12.210;2023-05-20T09:04:42;5.90;;;0.90;;
74867;SDS011;63419;42.262;12.210;2023-05-20T09:07:10;3.85;;;0.93;;
74867;SDS011;63419;42.262;12.210;2023-05-20T09:09:38;3.25;;;0.85;;
74867;SDS011;63419;42.262;12.210;2023-05-20T09:12:06;3.90;;;0.80;;
74867;SDS011;63419;42.262;12.210;2023-05-20T09:14:34;4.90;;;1.08;;
74867;SDS011;63419;42.262;12.210;2023-05-20T09:17:01;4.10;;;0.98;;
74867;SDS011;63419;42.262;12.210;2023-05-20T09:19:31;3.63;;;0.80;;
74867;SDS011;63419;42.262;12.210;2023-05-20T09:21:59;3.63;;;0.85;;
74867;SDS011;63419;42.262;12.210;2023-05-20T09:24:30;7.35;;;1.08;;
74867;SDS011;63419;42.262;12.210;2023-05-20T09:26:57;4.93;;;1.20;;
74867;SDS011;63419;42.262;12.210;2023-05-20T09:29:25;5.93;;;1.00;;
74867;SDS011;63419;42.262;12.210;2023-05-20T09:31:54;5.07;;;0.98;;
74867;SDS011;63419;42.262;12.210;2023-05-20T09:34:22;5.20;;;1.13;;
74867;SDS011;63419;42.262;12.210;2023-05-20T09:36:49;3.22;;;0.93;;
74867;SDS011;63419;42.262;12.210;2023-05-20T09:39:18;17.65;;;1.10;;
74867;SDS011;63419;42.262;12.210;2023-05-20T09:41:54;5.63;;;0.80;;
74867;SDS011;63419;42.262;12.210;2023-05-20T09:44:37;4.70;;;0.98;;
74867;SDS011;63419;42.262;12.210;2023-05-20T09:47:08;6.10;;;0.75;;
74867;SDS011;63419;42.262;12.210;2023-05-20T09:49:36;8.23;;;1.20;;
74867;SDS011;63419;42.262;12.210;2023-05-20T09:52:06;5.43;;;1.05;;
74867;SDS011;63419;42.262;12.210;2023-05-20T09:54:35;4.97;;;0.90;;
74867;SDS011;63419;42.262;12.210;2023-05-20T09:57:02;8.18;;;0.93;;
74867;SDS011;63419;42.262;12.210;2023-05-20T09:59:32;6.15;;;1.08;;
74867;SDS011;63419;42.262;12.210;2023-05-20T10:02:04;9.35;;;1.38;;
74867;SDS011;63419;42.262;12.210;2023-05-20T10:04:36;6.10;;;1.70;;
74867;SDS011;63419;42.262;12.210;2023-05-20T10:16:12;4.65;;;0.90;;
74867;SDS011;63419;42.262;12.210;2023-05-20T10:19:33;6.22;;;1.23;;
74867;SDS011;63419;42.262;12.210;2023-05-20T10:24:42;4.53;;;0.95;;
74867;SDS011;63419;42.262;12.210;2023-05-20T10:27:10;6.18;;;1.15;;
74867;SDS011;63419;42.262;12.210;2023-05-20T10:29:44;5.82;;;1.02;;
74867;SDS011;63419;42.262;12.210;2023-05-20T10:34:59;6.25;;;0.90;;
74867;SDS011;63419;42.262;12.210;2023-05-20T10:37:41;4.95;;;1.02;;
74867;SDS011;63419;42.262;12.210;2023-05-20T10:40:12;5.03;;;1.00;;
74867;SDS011;63419;42.262;12.210;2023-05-20T10:42:41;3.97;;;0.80;;
74867;SDS011;63419;42.262;12.210;2023-05-20T10:45:09;5.03;;;1.08;;
74867;SDS011;63419;42.262;12.210;2023-05-20T10:47:41;5.47;;;1.00;;
74867;SDS011;63419;42.262;12.210;2023-05-20T10:50:25;4.88;;;0.70;;
74867;SDS011;63419;42.262;12.210;2023-05-20T10:53:06;4.43;;;0.80;;
74867;SDS011;63419;42.262;12.210;2023-05-20T10:55:51;6.50;;;1.00;;
74867;SDS011;63419;42.262;12.210;2023-05-20T10:58:21;6.35;;;1.40;;
74867;SDS011;63419;42.262;12.210;2023-05-20T11:00:52;3.92;;;0.98;;
74867;SDS011;63419;42.262;12.210;2023-05-20T11:03:21;5.40;;;1.15;;
74867;SDS011;63419;42.262;12.210;2023-05-20T11:05:49;3.85;;;0.82;;
74867;SDS011;63419;42.262;12.210;2023-05-20T11:08:17;4.20;;;0.90;;
74867;SDS011;63419;42.262;12.210;2023-05-20T11:10:54;5.32;;;1.23;;
74867;SDS011;63419;42.262;12.210;2023-05-20T11:13:23;4.93;;;1.03;;
74867;SDS011;63419;42.262;12.210;2023-05-20T11:15:51;6.85;;;1.10;;
74867;SDS011;63419;42.262;12.210;2023-05-20T11:18:19;7.22;;;0.95;;
74867;SDS011;63419;42.262;12.210;2023-05-20T11:20:46;4.28;;;0.98;;
74867;SDS011;63419;42.262;12.210;2023-05-20T11:23:13;4.35;;;0.95;;
74867;SDS011;63419;42.262;12.210;2023-05-20T11:25:41;3.70;;;0.80;;
74867;SDS011;63419;42.262;12.210;2023-05-20T11:28:12;3.80;;;0.70;;
74867;SDS011;63419;42.262;12.210;2023-05-20T11:30:41;7.65;;;1.20;;
74867;SDS011;63419;42.262;12.210;2023-05-20T11:33:10;6.60;;;0.70;;
74867;SDS011;63419;42.262;12.210;2023-05-20T11:38:15;3.80;;;0.88;;
74867;SDS011;63419;42.262;12.210;2023-05-20T11:40:43;4.15;;;0.80;;
74867;SDS011;63419;42.262;12.210;2023-05-20T11:43:16;4.43;;;0.85;;
74867;SDS011;63419;42.262;12.210;2023-05-20T11:45:45;5.45;;;0.68;;
74867;SDS011;63419;42.262;12.210;2023-05-20T11:48:19;4.70;;;1.02;;
74867;SDS011;63419;42.262;12.210;2023-05-20T11:50:47;6.63;;;1.00;;
74867;SDS011;63419;42.262;12.210;2023-05-20T11:53:15;3.53;;;0.52;;
74867;SDS011;63419;42.262;12.210;2023-05-20T11:55:45;3.78;;;0.80;;
74867;SDS011;63419;42.262;12.210;2023-05-20T11:58:28;4.69;;;0.90;;
74867;SDS011;63419;42.262;12.210;2023-05-20T12:00:58;6.22;;;0.95;;
74867;SDS011;63419;42.262;12.210;2023-05-20T12:03:39;3.80;;;0.90;;
74867;SDS011;63419;42.262;12.210;2023-05-20T12:06:06;7.72;;;1.35;;
74867;SDS011;63419;42.262;12.210;2023-05-20T12:08:33;6.43;;;0.75;;
74867;SDS011;63419;42.262;12.210;2023-05-20T12:11:01;4.28;;;0.90;;
74867;SDS011;63419;42.262;12.210;2023-05-20T12:13:28;3.90;;;0.80;;
74867;SDS011;63419;42.262;12.210;2023-05-20T12:15:55;6.00;;;0.80;;
74867;SDS011;63419;42.262;12.210;2023-05-20T12:18:23;5.13;;;1.00;;
74867;SDS011;63419;42.262;12.210;2023-05-20T12:20:50;5.55;;;1.20;;
74867;SDS011;63419;42.262;12.210;2023-05-20T12:23:17;6.15;;;0.93;;
74867;SDS011;63419;42.262;12.210;2023-05-20T12:25:44;4.68;;;0.73;;
74867;SDS011;63419;42.262;12.210;2023-05-20T12:28:15;4.97;;;0.90;;
74867;SDS011;63419;42.262;12.210;2023-05-20T12:30:43;5.40;;;0.82;;
74867;SDS011;63419;42.262;12.210;2023-05-20T12:33:10;4.28;;;0.80;;
74867;SDS011;63419;42.262;12.210;2023-05-20T12:35:38;3.65;;;0.63;;
74867;SDS011;63419;42.262;12.210;2023-05-20T12:38:08;6.45;;;0.80;;
74867;SDS011;63419;42.262;12.210;2023-05-20T12:40:35;6.57;;;0.95;;
74867;SDS011;63419;42.262;12.210;2023-05-20T12:43:03;5.55;;;1.17;;
74867;SDS011;63419;42.262;12.210;2023-05-20T12:45:31;4.97;;;0.82;;
74867;SDS011;63419;42.262;12.210;2023-05-20T12:47:59;5.28;;;1.00;;
74867;SDS011;63419;42.262;12.210;2023-05-20T12:50:27;9.50;;;0.90;;
74867;SDS011;63419;42.262;12.210;2023-05-20T12:52:55;7.63;;;1.05;;
74867;SDS011;63419;42.262;12.210;2023-05-20T12:55:23;3.25;;;0.68;;
74867;SDS011;63419;42.262;12.210;2023-05-20T12:57:52;5.45;;;0.70;;
74867;SDS011;63419;42.262;12.210;2023-05-20T13:00:21;3.38;;;0.55;;
74867;SDS011;63419;42.262;12.210;2023-05-20T13:02:48;3.80;;;0.75;;
74867;SDS011;63419;42.262;12.210;2023-05-20T13:05:16;3.63;;;0.70;;
74867;SDS011;63419;42.262;12.210;2023-05-20T13:07:44;4.65;;;1.10;;
74867;SDS011;63419;42.262;12.210;2023-05-20T13:10:12;5.55;;;0.90;;
74867;SDS011;63419;42.262;12.210;2023-05-20T13:12:39;5.53;;;0.73;;
74867;SDS011;63419;42.262;12.210;2023-05-20T13:15:11;4.10;;;0.95;;
74867;SDS011;63419;42.262;12.210;2023-05-20T13:17:40;4.57;;;0.75;;
74867;SDS011;63419;42.262;12.210;2023-05-20T13:20:10;5.88;;;0.93;;
74867;SDS011;63419;42.262;12.210;2023-05-20T13:22:39;3.50;;;1.00;;
74867;SDS011;63419;42.262;12.210;2023-05-20T13:25:06;8.38;;;1.05;;
74867;SDS011;63419;42.262;12.210;2023-05-20T13:27:34;5.47;;;1.00;;
74867;SDS011;63419;42.262;12.210;2023-05-20T13:30:02;5.28;;;1.38;;
74867;SDS011;63419;42.262;12.210;2023-05-20T13:32:31;4.05;;;0.88;;
74867;SDS011;63419;42.262;12.210;2023-05-20T13:34:59;4.35;;;0.80;;
74867;SDS011;63419;42.262;12.210;2023-05-20T13:37:26;3.95;;;0.90;;
74867;SDS011;63419;42.262;12.210;2023-05-20T13:39:53;4.10;;;0.95;;
74867;SDS011;63419;42.262;12.210;2023-05-20T13:42:20;4.00;;;1.00;;
74867;SDS011;63419;42.262;12.210;2023-05-20T13:44:48;4.70;;;0.98;;
74867;SDS011;63419;42.262;12.210;2023-05-20T13:47:15;3.78;;;0.75;;
74867;SDS011;63419;42.262;12.210;2023-05-20T13:49:42;4.28;;;0.82;;
74867;SDS011;63419;42.262;12.210;2023-05-20T13:52:10;4.78;;;0.70;;
74867;SDS011;63419;42.262;12.210;2023-05-20T13:54:37;6.47;;;1.20;;
74867;SDS011;63419;42.262;12.210;2023-05-20T13:57:05;5.40;;;1.15;;
74867;SDS011;63419;42.262;12.210;2023-05-20T13:59:33;6.28;;;0.82;;
74867;SDS011;63419;42.262;12.210;2023-05-20T14:02:01;5.82;;;1.10;;
74867;SDS011;63419;42.262;12.210;2023-05-20T14:04:28;4.68;;;0.93;;
74867;SDS011;63419;42.262;12.210;2023-05-20T14:07:05;4.95;;;0.90;;
74867;SDS011;63419;42.262;12.210;2023-05-20T14:09:36;6.72;;;1.17;;
74867;SDS011;63419;42.262;12.210;2023-05-20T14:12:03;6.93;;;1.35;;
74867;SDS011;63419;42.262;12.210;2023-05-20T14:14:31;4.80;;;1.00;;
74867;SDS011;63419;42.262;12.210;2023-05-20T14:16:59;5.75;;;0.80;;
74867;SDS011;63419;42.262;12.210;2023-05-20T14:19:26;4.28;;;0.98;;
74867;SDS011;63419;42.262;12.210;2023-05-20T14:21:54;4.53;;;0.93;;
74867;SDS011;63419;42.262;12.210;2023-05-20T14:24:24;4.93;;;0.85;;
74867;SDS011;63419;42.262;12.210;2023-05-20T14:26:51;6.13;;;0.80;;
74867;SDS011;63419;42.262;12.210;2023-05-20T14:29:18;4.30;;;0.90;;
74867;SDS011;63419;42.262;12.210;2023-05-20T14:31:46;4.90;;;0.93;;
74867;SDS011;63419;42.262;12.210;2023-05-20T14:34:13;4.28;;;0.65;;
74867;SDS011;63419;42.262;12.210;2023-05-20T14:36:40;4.93;;;0.93;;
74867;SDS011;63419;42.262;12.210;2023-05-20T14:39:08;5.15;;;0.85;;
74867;SDS011;63419;42.262;12.210;2023-05-20T14:41:35;4.75;;;1.02;;
74867;SDS011;63419;42.262;12.210;2023-05-20T14:44:02;4.45;;;0.80;;
74867;SDS011;63419;42.262;12.210;2023-05-20T14:46:30;7.68;;;1.00;;
74867;SDS011;63419;42.262;12.210;2023-05-20T14:48:58;5.32;;;1.23;;
74867;SDS011;63419;42.262;12.210;2023-05-20T14:51:25;4.28;;;0.63;;
74867;SDS011;63419;42.262;12.210;2023-05-20T14:53:53;4.72;;;1.10;;
74867;SDS011;63419;42.262;12.210;2023-05-20T14:56:20;6.50;;;0.82;;
74867;SDS011;63419;42.262;12.210;2023-05-20T14:58:48;5.32;;;1.08;;
74867;SDS011;63419;42.262;12.210;2023-05-20T15:01:15;5.40;;;1.38;;
74867;SDS011;63419;42.262;12.210;2023-05-20T15:03:42;5.13;;;0.75;;
74867;SDS011;63419;42.262;12.210;2023-05-20T15:06:10;5.57;;;1.17;;
74867;SDS011;63419;42.262;12.210;2023-05-20T15:08:37;4.40;;;1.05;;
74867;SDS011;63419;42.262;12.210;2023-05-20T15:11:04;6.47;;;1.13;;
74867;SDS011;63419;42.262;12.210;2023-05-20T15:13:32;3.85;;;0.98;;
74867;SDS011;63419;42.262;12.210;2023-05-20T15:15:59;6.38;;;1.10;;
74867;SDS011;63419;42.262;12.210;2023-05-20T15:18:26;6.22;;;1.15;;
74867;SDS011;63419;42.262;12.210;2023-05-20T15:20:54;4.68;;;0.85;;
74867;SDS011;63419;42.262;12.210;2023-05-20T15:23:21;5.38;;;0.85;;
74867;SDS011;63419;42.262;12.210;2023-05-20T15:25:48;5.82;;;1.00;;
74867;SDS011;63419;42.262;12.210;2023-05-20T15:28:16;3.55;;;0.95;;
74867;SDS011;63419;42.262;12.210;2023-05-20T15:30:45;3.85;;;1.00;;
74867;SDS011;63419;42.262;12.210;2023-05-20T15:33:18;5.70;;;1.10;;
74867;SDS011;63419;42.262;12.210;2023-05-20T15:35:46;5.70;;;1.33;;
74867;SDS011;63419;42.262;12.210;2023-05-20T15:38:14;5.28;;;1.02;;
74867;SDS011;63419;42.262;12.210;2023-05-20T15:40:42;5.25;;;0.80;;
74867;SDS011;63419;42.262;12.210;2023-05-20T15:43:10;7.50;;;1.38;;
74867;SDS011;63419;42.262;12.210;2023-05-20T15:45:37;4.13;;;0.80;;
74867;SDS011;63419;42.262;12.210;2023-05-20T15:48:05;4.30;;;0.68;;
74867;SDS011;63419;42.262;12.210;2023-05-20T15:50:33;4.78;;;0.90;;
74867;SDS011;63419;42.262;12.210;2023-05-20T15:53:06;4.95;;;0.68;;
74867;SDS011;63419;42.262;12.210;2023-05-20T15:55:34;3.33;;;0.65;;
74867;SDS011;63419;42.262;12.210;2023-05-20T15:58:02;3.22;;;0.90;;
74867;SDS011;63419;42.262;12.210;2023-05-20T16:00:29;7.47;;;1.00;;
74867;SDS011;63419;42.262;12.210;2023-05-20T16:02:56;4.68;;;0.98;;
74867;SDS011;63419;42.262;12.210;2023-05-20T16:05:24;4.00;;;0.98;;
74867;SDS011;63419;42.262;12.210;2023-05-20T16:07:52;4.10;;;0.98;;
74867;SDS011;63419;42.262;12.210;2023-05-20T16:10:20;5.03;;;0.85;;
74867;SDS011;63419;42.262;12.210;2023-05-20T16:12:49;5.32;;;1.05;;
74867;SDS011;63419;42.262;12.210;2023-05-20T16:15:16;7.30;;;1.40;;
74867;SDS011;63419;42.262;12.210;2023-05-20T16:17:44;5.70;;;1.48;;
74867;SDS011;63419;42.262;12.210;2023-05-20T16:23:00;9.77;;;1.98;;